Current Weather

Chicago O'Hare International

Chicago, Illinois (KORD)

Report from: Sunday, November 27, 2022 12:51 AM CST
Current time: Sunday, November 27, 2022 2:03 AM CST

Nearby weather
Weather history
Weather forecast

Temperature6.1°C (43.0°F)
Wind chill5.1°C (41.3°F)
Dew point1.7°C (35.1°F)
Winds 3 kts (1.5 m/s, 3.5 mph) Southeast (130°)
Visibility9 mi. (14.5 km)
Clouds Ceiling: Broken clouds 19,000 ft. (5,791 m)
Altimeter29.65 in.Hg (1004 mB)
Relative humidity73 %
Density altitude-656 ft. (-200 m)
Sea-level pressure100.4 kPa (1004 mB, 29.65 in.Hg)
Remarks System requires maintenance
Automated weather observing station with precipitation discriminator
Pressure falling rapidly
Flight conditions Visual Meteorological Conditions
Raw dataKORD 270651Z 13003KT 9SM BKN190 06/02 A2965 RMK AO2 PRESFR SLP042 T00610017 $
An error has occurred. This application may no longer respond until reloaded. Reload 🗙